Time;durP1;ratioP1;P1;durP2;ratioP2;P2;SDS_P1;SDS_P2;PMS_P1;PMS_P2;Temp;Humidity;BMP_temperature;BMP_pressure;BME280_temperature;BME280_humidity;BME280_pressure;Samples;Min_cycle;Max_cycle;Signal;HPM_P1;HPM_P2
2022/02/15 00:00:13;;;;;;;20.77;9.60;;;;;;;-0.45;68.80;142165.64;1748907;81;21016;-59
2022/02/15 00:02:40;;;;;;;13.72;8.05;;;;;;;-0.46;69.08;142163.13;1749015;82;20987;-60
2022/02/15 00:05:09;;;;;;;19.15;9.30;;;;;;;-0.46;68.99;142163.13;1748617;82;21017;-57
2022/02/15 00:07:35;;;;;;;19.07;9.08;;;;;;;-0.46;69.03;142163.13;1748864;81;21053;-57
2022/02/15 00:10:05;;;;;;;19.82;8.45;;;;;;;-0.51;69.22;142150.70;1748828;82;21004;-60
2022/02/15 00:12:33;;;;;;;15.72;8.15;;;;;;;-0.55;69.33;142140.80;1742561;81;21506;-60
2022/02/15 00:15:01;;;;;;;16.15;8.45;;;;;;;-0.56;69.30;142138.28;1740514;81;21539;-59
2022/02/15 00:17:28;;;;;;;16.25;7.92;;;;;;;-0.57;69.37;142135.81;1740430;82;21059;-57
2022/02/15 00:19:56;;;;;;;15.85;8.03;;;;;;;-0.61;69.47;142127.14;1740474;81;21005;-57
2022/02/15 00:22:22;;;;;;;18.98;7.97;;;;;;;-0.61;69.44;142125.86;1740766;82;21534;-57
2022/02/15 00:24:49;;;;;;;17.12;8.55;;;;;;;-0.60;69.38;142128.38;1740717;82;21044;-58
2022/02/15 00:27:16;;;;;;;16.40;8.10;;;;;;;-0.63;69.50;142120.94;1740413;82;21035;-58
2022/02/15 00:29:43;;;;;;;15.35;7.75;;;;;;;-0.66;69.47;142115.95;1740683;82;21025;-58
2022/02/15 00:32:10;;;;;;;17.95;7.60;;;;;;;-0.68;69.54;142110.97;1740424;81;21032;-57
2022/02/15 00:34:37;;;;;;;17.15;7.58;;;;;;;-0.67;69.51;142113.44;1740456;82;21016;-58
2022/02/15 00:37:04;;;;;;;15.83;7.92;;;;;;;-0.64;69.40;142118.41;1740747;81;20985;-58
2022/02/15 00:39:31;;;;;;;16.67;8.30;;;;;;;-0.63;69.43;142120.94;1740540;81;21029;-58
2022/02/15 00:42:00;;;;;;;17.35;8.08;;;;;;;-0.63;69.50;142120.94;1740464;81;21036;-60
2022/02/15 00:44:27;;;;;;;17.87;7.78;;;;;;;-0.65;69.43;142117.19;1740737;81;21049;-58
2022/02/15 00:46:54;;;;;;;18.25;8.50;;;;;;;-0.67;69.44;142113.44;1740648;81;21514;-58
2022/02/15 00:49:22;;;;;;;17.12;8.18;;;;;;;-0.68;69.58;142110.97;1740510;82;21021;-60
2022/02/15 00:51:49;;;;;;;16.60;8.50;;;;;;;-0.72;69.58;142101.02;1740391;82;21040;-60
2022/02/15 00:54:17;;;;;;;18.50;8.05;;;;;;;-0.73;69.80;142097.31;1740425;81;21065;-57
2022/02/15 00:56:44;;;;;;;13.95;7.70;;;;;;;-0.79;70.02;142083.66;1740805;82;21005;-60
2022/02/15 00:59:11;;;;;;;15.63;8.50;;;;;;;-0.81;70.24;142078.69;1740657;82;21526;-58
2022/02/15 01:01:39;;;;;;;18.05;8.75;;;;;;;-0.83;70.33;142073.72;1740477;82;21507;-59
2022/02/15 01:04:06;;;;;;;16.30;8.43;;;;;;;-0.82;70.40;142076.17;1740634;82;21037;-59
2022/02/15 01:06:33;;;;;;;17.87;8.65;;;;;;;-0.82;70.43;142076.17;1740472;81;21512;-61
2022/02/15 01:09:00;;;;;;;14.75;7.92;;;;;;;-0.85;70.55;142068.73;1719813;82;21056;-58
2022/02/15 01:11:27;;;;;;;18.90;9.18;;;;;;;-0.85;70.55;142067.50;1740532;81;21557;-57
2022/02/15 01:13:54;;;;;;;17.17;7.80;;;;;;;-0.86;70.75;142065.03;1740389;82;21013;-59
2022/02/15 01:16:20;;;;;;;17.48;8.13;;;;;;;-0.91;70.78;142053.84;1740406;82;21056;-59
2022/02/15 01:18:47;;;;;;;16.82;7.22;;;;;;;-0.94;70.87;142046.36;1740654;81;21061;-59
2022/02/15 01:21:14;;;;;;;17.40;8.25;;;;;;;-0.96;70.89;142041.44;1740413;82;21060;-56
2022/02/15 01:23:43;;;;;;;13.85;7.20;;;;;;;-0.96;71.03;142042.66;1740397;82;20993;-58
2022/02/15 01:26:10;;;;;;;15.03;7.75;;;;;;;-0.96;71.16;142041.44;1740633;82;21012;-60
2022/02/15 01:28:37;;;;;;;14.33;7.85;;;;;;;-0.98;71.32;142036.45;1740402;81;21032;-60
2022/02/15 01:31:05;;;;;;;19.92;7.45;;;;;;;-1.00;71.50;142031.47;1740367;82;21040;-60
2022/02/15 01:33:32;;;;;;;18.62;8.38;;;;;;;-0.99;71.54;142033.94;1740375;82;21072;-59
2022/02/15 01:36:00;;;;;;;15.75;8.18;;;;;;;-1.01;71.73;142030.25;1740386;81;21064;-60
2022/02/15 01:38:28;;;;;;;16.35;7.17;;;;;;;-1.01;71.85;142029.02;1740385;82;21020;-59
2022/02/15 01:40:55;;;;;;;16.90;8.20;;;;;;;-1.02;71.95;142027.73;1740769;81;21044;-59
2022/02/15 01:43:23;;;;;;;16.80;8.30;;;;;;;-0.99;71.96;142033.94;1740425;81;20985;-58
2022/02/15 01:45:50;;;;;;;13.95;7.58;;;;;;;-0.96;71.90;142041.44;1740656;82;21084;-60
2022/02/15 01:48:17;;;;;;;22.32;8.70;;;;;;;-0.91;71.75;142053.84;1740621;81;21499;-57
2022/02/15 01:50:45;;;;;;;17.90;8.50;;;;;;;-0.85;71.54;142067.50;1740609;81;21029;-56
2022/02/15 01:53:12;;;;;;;17.40;8.43;;;;;;;-0.82;71.45;142074.94;1740621;81;21057;-61
2022/02/15 01:55:39;;;;;;;16.52;7.53;;;;;;;-0.79;71.30;142083.66;1740719;82;20989;-58
2022/02/15 01:58:07;;;;;;;15.10;7.87;;;;;;;-0.77;71.28;142087.36;1740379;81;21032;-59
2022/02/15 02:00:35;;;;;;;18.73;8.55;;;;;;;-0.75;71.20;142093.56;1740357;81;21067;-57
2022/02/15 02:03:07;;;;;;;13.90;7.70;;;;;;;-0.72;71.12;142101.02;1740199;82;21028;-58
2022/02/15 02:05:49;;;;;;;20.05;8.90;;;;;;;-0.68;70.96;142109.73;1740386;81;21091;-58
2022/02/15 02:08:27;;;;;;;20.02;8.43;;;;;;;-0.68;71.02;142110.97;1740637;82;21075;-58
2022/02/15 02:10:55;;;;;;;16.97;8.10;;;;;;;-0.67;71.09;142113.44;1740579;82;21017;-58
2022/02/15 02:13:27;;;;;;;20.27;8.18;;;;;;;-0.66;71.12;142115.95;1729749;82;21029;-58
2022/02/15 02:15:55;;;;;;;16.50;7.75;;;;;;;-0.66;71.17;142115.95;1740556;82;21017;-58
2022/02/15 02:18:23;;;;;;;15.50;7.53;;;;;;;-0.65;71.22;142117.19;1738316;82;21060;-58
2022/02/15 02:20:51;;;;;;;17.27;7.83;;;;;;;-0.63;71.22;142120.94;1740764;81;21565;-60
2022/02/15 02:23:21;;;;;;;17.32;9.03;;;;;;;-0.67;71.33;142113.44;1740524;82;21020;-59
2022/02/15 02:25:48;;;;;;;16.12;7.85;;;;;;;-0.69;71.44;142108.50;1740890;81;21016;-58
2022/02/15 02:28:18;;;;;;;16.23;7.75;;;;;;;-0.70;71.30;142106.00;1740587;81;21521;-60
2022/02/15 02:30:46;;;;;;;16.00;6.65;;;;;;;-0.71;71.50;142103.53;1740723;81;21040;-59
2022/02/15 02:33:13;;;;;;;17.23;7.83;;;;;;;-0.71;71.54;142103.53;1740853;82;21495;-59
2022/02/15 02:35:39;;;;;;;16.07;8.00;;;;;;;-0.67;71.41;142112.20;1740505;81;21021;-57
2022/02/15 02:38:07;;;;;;;15.28;7.75;;;;;;;-0.66;71.45;142115.95;1740425;82;21058;-57
2022/02/15 02:40:35;;;;;;;18.07;7.55;;;;;;;-0.63;71.40;142120.94;1740734;81;21012;-59
2022/02/15 02:43:04;;;;;;;16.67;7.62;;;;;;;-0.62;71.35;142124.62;1740867;82;21040;-60
2022/02/15 02:45:31;;;;;;;16.10;8.85;;;;;;;-0.59;71.30;142130.84;1740544;82;21065;-58
2022/02/15 02:47:59;;;;;;;15.80;6.95;;;;;;;-0.58;71.25;142133.34;1740778;82;21040;-59
2022/02/15 02:50:29;;;;;;;18.35;7.55;;;;;;;-0.59;71.36;142130.84;1740472;82;21044;-60
2022/02/15 02:52:55;;;;;;;17.77;8.43;;;;;;;-0.56;71.17;142138.28;1740729;82;21059;-59
2022/02/15 02:55:24;;;;;;;15.80;6.67;;;;;;;-0.56;71.27;142139.56;1740509;82;21061;-58
2022/02/15 02:57:53;;;;;;;14.00;7.65;;;;;;;-0.57;71.26;142135.81;1740882;81;21036;-57
2022/02/15 03:00:22;;;;;;;16.65;7.15;;;;;;;-0.58;71.38;142134.58;1740449;82;21013;-59
2022/02/15 03:02:51;;;;;;;12.75;6.58;;;;;;;-0.58;71.41;142133.34;1727899;82;21531;-59
2022/02/15 03:05:18;;;;;;;12.37;6.67;;;;;;;-0.59;71.45;142132.06;1740731;82;21012;-59
2022/02/15 03:07:45;;;;;;;15.83;7.12;;;;;;;-0.61;71.63;142125.86;1740503;82;21084;-58
2022/02/15 03:10:12;;;;;;;14.95;7.37;;;;;;;-0.61;71.58;142125.86;1740696;81;21044;-57
2022/02/15 03:12:39;;;;;;;16.12;6.97;;;;;;;-0.63;71.59;142122.16;1746847;82;21012;-58
2022/02/15 03:15:08;;;;;;;16.07;6.75;;;;;;;-0.64;71.58;142118.41;1754530;81;21019;-59
2022/02/15 03:17:36;;;;;;;13.13;7.12;;;;;;;-0.66;71.43;142115.95;1754974;80;21534;-59
2022/02/15 03:20:05;;;;;;;15.63;6.97;;;;;;;-0.64;71.10;142119.66;1754515;80;21071;-59
2022/02/15 03:22:35;;;;;;;15.93;6.78;;;;;;;-0.66;71.23;142114.72;1754990;80;21494;-59
2022/02/15 03:25:03;;;;;;;15.65;6.42;;;;;;;-0.65;70.88;142117.19;1754766;80;21055;-58
2022/02/15 03:27:31;;;;;;;14.47;6.80;;;;;;;-0.66;70.81;142115.95;1754838;80;20992;-58
2022/02/15 03:29:59;;;;;;;17.57;6.75;;;;;;;-0.66;70.48;142114.72;1754712;81;21011;-58
2022/02/15 03:32:26;;;;;;;15.90;7.42;;;;;;;-0.67;70.57;142112.20;1754722;80;20996;-57
2022/02/15 03:34:53;;;;;;;13.48;7.12;;;;;;;-0.66;70.37;142114.72;1754856;82;21027;-60
2022/02/15 03:37:19;;;;;;;13.10;6.50;;;;;;;-0.66;70.42;142115.95;1754560;82;21000;-57
2022/02/15 03:39:46;;;;;;;14.47;6.60;;;;;;;-0.68;70.43;142110.97;1754763;82;21055;-60
2022/02/15 03:44:59;;;;;;;12.85;6.35;;;;;;;-0.72;70.72;142099.78;1754512;82;21115;-59
2022/02/15 03:47:30;;;;;;;17.92;7.28;;;;;;;-0.74;70.33;142094.81;1751248;82;21094;-60
2022/02/15 03:49:57;;;;;;;14.95;6.15;;;;;;;-0.74;70.37;142096.09;1754694;80;21016;-57
2022/02/15 03:52:24;;;;;;;14.55;6.47;;;;;;;-0.77;70.19;142088.59;1754494;80;21031;-58
2022/02/15 03:54:51;;;;;;;12.43;6.83;;;;;;;-0.77;70.01;142088.59;1754737;80;21027;-58
2022/02/15 03:57:18;;;;;;;11.05;5.47;;;;;;;-0.77;70.20;142088.59;1754483;81;21036;-59
2022/02/15 03:59:45;;;;;;;13.32;6.65;;;;;;;-0.79;70.20;142083.66;1754683;82;21020;-59
2022/02/15 04:02:14;;;;;;;11.00;5.75;;;;;;;-0.80;70.23;142081.16;1754084;82;21008;-57
2022/02/15 04:04:41;;;;;;;11.10;6.08;;;;;;;-0.82;70.28;142076.17;1725581;82;21012;-56
2022/02/15 04:07:09;;;;;;;13.60;6.95;;;;;;;-0.84;70.41;142071.25;1754539;82;21067;-59
2022/02/15 04:09:37;;;;;;;16.48;7.10;;;;;;;-0.87;70.54;142063.75;1754778;82;20996;-59
2022/02/15 04:12:05;;;;;;;16.87;6.92;;;;;;;-0.89;70.86;142058.78;1754612;81;21009;-60
2022/02/15 04:14:34;;;;;;;16.02;6.55;;;;;;;-0.93;71.01;142048.88;1754224;80;21000;-59
2022/02/15 04:17:01;;;;;;;14.20;7.20;;;;;;;-0.96;71.01;142041.44;1754709;82;21052;-58
2022/02/15 04:19:28;;;;;;;12.47;6.55;;;;;;;-0.96;71.40;142041.44;1754535;82;21059;-59
2022/02/15 04:21:56;;;;;;;14.83;6.85;;;;;;;-0.97;71.40;142038.92;1754679;81;21071;-57
2022/02/15 04:24:23;;;;;;;14.63;6.62;;;;;;;-0.99;71.55;142035.22;1754454;80;21529;-59
2022/02/15 04:26:50;;;;;;;15.53;7.17;;;;;;;-1.01;71.78;142029.02;1754785;80;21004;-60
2022/02/15 04:29:18;;;;;;;16.20;6.83;;;;;;;-1.01;71.73;142029.02;1754433;82;21004;-60
2022/02/15 04:31:49;;;;;;;12.75;6.95;;;;;;;-1.06;72.05;142017.83;1754621;81;21008;-60
2022/02/15 04:34:17;;;;;;;14.70;6.40;;;;;;;-1.12;72.28;142002.91;1754458;80;21118;-58
2022/02/15 04:36:44;;;;;;;15.95;7.08;;;;;;;-1.16;72.50;141994.22;1754820;81;21015;-58
2022/02/15 04:39:14;;;;;;;15.00;6.50;;;;;;;-1.17;72.59;141991.77;1754446;82;21553;-59
2022/02/15 04:41:42;;;;;;;16.02;7.03;;;;;;;-1.20;72.64;141984.28;1754114;82;21019;-60
2022/02/15 04:44:11;;;;;;;14.70;6.42;;;;;;;-1.20;72.24;141984.28;1754519;82;21016;-60
2022/02/15 04:46:38;;;;;;;15.30;6.85;;;;;;;-1.21;71.83;141981.81;1754789;82;21517;-59
2022/02/15 04:49:05;;;;;;;14.83;6.08;;;;;;;-1.21;71.71;141980.58;1754663;82;21501;-61
2022/02/15 04:51:32;;;;;;;12.65;6.10;;;;;;;-1.20;71.53;141984.28;1754630;82;21074;-57
2022/02/15 04:53:59;;;;;;;15.45;6.70;;;;;;;-1.19;71.65;141985.56;1754434;81;21016;-59
2022/02/15 04:56:27;;;;;;;12.53;6.67;;;;;;;-1.19;71.69;141986.78;1754621;82;21046;-57
2022/02/15 04:58:54;;;;;;;16.27;6.95;;;;;;;-1.20;71.73;141984.28;1754656;82;21012;-60
2022/02/15 05:01:21;;;;;;;11.85;6.50;;;;;;;-1.22;71.34;141978.06;1754672;80;21066;-59
2022/02/15 05:03:53;;;;;;;14.18;6.95;;;;;;;-1.23;71.57;141976.84;1754496;82;21008;-58
2022/02/15 05:06:20;;;;;;;14.07;6.42;;;;;;;-1.21;71.31;141981.81;1754640;82;21059;-60
2022/02/15 05:08:48;;;;;;;12.15;5.70;;;;;;;-1.19;71.21;141986.78;1754426;80;21506;-57
2022/02/15 05:11:15;;;;;;;18.30;6.62;;;;;;;-1.18;70.89;141989.25;1754613;82;21008;-59
2022/02/15 05:13:44;;;;;;;12.85;6.42;;;;;;;-1.20;71.00;141984.28;1754468;81;21565;-60
2022/02/15 05:16:28;;;;;;;13.15;6.30;;;;;;;-1.21;70.69;141981.81;1754525;81;21039;-59
2022/02/15 05:18:57;;;;;;;14.00;6.65;;;;;;;-1.21;70.83;141981.81;1753727;82;21514;-59
2022/02/15 05:21:26;;;;;;;16.65;6.72;;;;;;;-1.19;70.78;141985.56;1754617;81;21048;-60
2022/02/15 05:23:55;;;;;;;16.87;8.28;;;;;;;-1.17;70.99;141991.77;1754345;81;21051;-59
2022/02/15 05:26:24;;;;;;;12.90;6.03;;;;;;;-1.18;71.17;141989.25;1754001;82;21531;-59
2022/02/15 05:28:52;;;;;;;17.27;6.92;;;;;;;-1.16;70.90;141993.00;1754205;82;21004;-60
2022/02/15 05:31:22;;;;;;;12.85;6.20;;;;;;;-1.17;71.06;141991.77;1754444;81;21554;-60
2022/02/15 05:33:49;;;;;;;13.30;6.97;;;;;;;-1.18;71.05;141989.25;1754532;81;20996;-60
2022/02/15 05:36:16;;;;;;;16.77;6.67;;;;;;;-1.17;70.80;141991.77;1754676;82;21003;-59
2022/02/15 05:38:45;;;;;;;14.03;6.33;;;;;;;-1.14;70.46;141999.20;1754637;82;21024;-60
2022/02/15 05:41:12;;;;;;;15.60;6.95;;;;;;;-1.14;70.88;141999.20;1754432;80;21059;-58
2022/02/15 05:43:39;;;;;;;14.30;6.55;;;;;;;-1.13;71.10;142001.67;1754400;82;21024;-59
2022/02/15 05:46:08;;;;;;;16.42;7.37;;;;;;;-1.04;71.13;142022.81;1754071;80;20989;-58
2022/02/15 05:48:37;;;;;;;13.00;6.05;;;;;;;-0.08;69.06;142255.09;1753448;82;21044;-59
2022/02/15 05:51:06;;;;;;;13.30;6.83;;;;;;;0.97;64.42;142510.03;1753541;82;21487;-58
2022/02/15 05:53:35;;;;;;;15.58;7.47;;;;;;;1.78;62.06;142707.91;1753048;82;21008;-60
2022/02/15 05:56:05;;;;;;;14.10;6.92;;;;;;;2.33;59.04;142842.36;1754567;81;21028;-60
2022/02/15 05:58:37;;;;;;;17.35;7.70;;;;;;;2.73;57.19;142939.55;1754284;80;21075;-61
2022/02/15 06:01:06;;;;;;;13.60;7.50;;;;;;;3.11;55.87;143031.77;1754793;80;20976;-60
2022/02/15 06:06:20;;;;;;;18.20;9.03;;;;;;;3.81;53.43;143201.31;1754760;80;21059;-59
2022/02/15 06:08:48;;;;;;;18.17;7.90;;;;;;;4.01;52.47;143249.97;1754552;82;21106;-60
2022/02/15 06:11:15;;;;;;;14.63;7.55;;;;;;;4.23;51.51;143303.63;1754601;81;21035;-58
2022/02/15 06:13:45;;;;;;;14.20;7.33;;;;;;;4.41;50.89;143348.53;1747173;80;21064;-61
2022/02/15 06:16:14;;;;;;;18.35;8.63;;;;;;;4.48;50.13;143366.00;1740591;81;20982;-60
2022/02/15 06:18:45;;;;;;;14.73;7.65;;;;;;;4.76;50.05;143433.41;1739004;82;21048;-58
2022/02/15 06:21:13;;;;;;;14.90;7.70;;;;;;;5.03;48.94;143498.30;1740597;82;21515;-62
2022/02/15 06:23:40;;;;;;;15.63;7.55;;;;;;;5.35;48.13;143576.97;1740726;81;21065;-61
2022/02/15 06:26:08;;;;;;;14.43;7.25;;;;;;;5.72;46.87;143668.13;1740485;82;21072;-60
2022/02/15 06:28:54;;;;;;;15.32;7.55;;;;;;;5.75;45.73;143674.38;1740795;81;21522;-61
2022/02/15 06:31:23;;;;;;;17.35;8.15;;;;;;;5.73;46.42;143669.41;1740314;82;21057;-58
2022/02/15 06:33:50;;;;;;;15.93;8.38;;;;;;;6.02;45.79;143741.89;1740980;81;21498;-60
2022/02/15 06:36:17;;;;;;;12.95;7.05;;;;;;;6.43;45.17;143840.63;1740501;82;21059;-61
2022/02/15 06:38:45;;;;;;;13.25;7.83;;;;;;;6.72;43.94;143911.91;1740521;82;21001;-61
2022/02/15 06:41:14;;;;;;;12.93;7.12;;;;;;;7.01;43.47;143981.91;1740440;81;21004;-61
2022/02/15 06:43:42;;;;;;;13.95;6.90;;;;;;;7.38;42.35;144073.23;1739005;82;21025;-61
2022/02/15 06:46:09;;;;;;;12.80;7.25;;;;;;;7.70;40.73;144150.78;1740458;82;21048;-60
2022/02/15 06:48:36;;;;;;;14.53;6.35;;;;;;;7.85;41.14;144188.33;1740485;81;20993;-61
2022/02/15 06:51:03;;;;;;;13.95;6.58;;;;;;;8.36;39.36;144312.25;1740610;82;21503;-61
2022/02/15 06:53:38;;;;;;;15.00;6.45;;;;;;;8.44;39.42;144333.56;1738491;81;21040;-61
2022/02/15 06:56:09;;;;;;;15.80;6.45;;;;;;;8.51;39.18;144348.61;1739385;81;21154;-61
2022/02/15 06:58:35;;;;;;;12.18;6.53;;;;;;;8.67;38.75;144388.66;1740648;81;21616;-61
2022/02/15 07:01:02;;;;;;;12.65;6.92;;;;;;;8.69;38.95;144393.69;1740514;82;21012;-59
2022/02/15 07:03:29;;;;;;;12.37;6.92;;;;;;;9.04;38.35;144478.87;1740488;82;21037;-60
2022/02/15 07:05:58;;;;;;;11.45;6.40;;;;;;;9.03;38.11;144477.63;1740558;82;20985;-58
2022/02/15 07:08:26;;;;;;;13.50;7.12;;;;;;;9.18;37.83;144513.91;1740635;82;21502;-61
2022/02/15 07:10:54;;;;;;;13.08;6.45;;;;;;;8.92;38.28;144450.03;1740521;81;21005;-62
2022/02/15 07:13:26;;;;;;;12.93;7.12;;;;;;;9.49;37.68;144589.09;1740391;81;21499;-61
2022/02/15 07:15:55;;;;;;;11.93;6.47;;;;;;;10.22;36.47;144768.34;1740356;82;21126;-61
2022/02/15 07:18:23;;;;;;;11.70;6.47;;;;;;;10.30;36.05;144788.45;1740722;81;21013;-59
2022/02/15 07:20:55;;;;;;;13.08;6.72;;;;;;;10.51;35.60;144838.66;1709139;82;21564;-62
2022/02/15 07:23:31;;;;;;;12.88;6.70;;;;;;;10.92;35.26;144939.00;1740807;82;21503;-62
2022/02/15 07:26:18;;;;;;;11.08;6.37;;;;;;;10.80;35.27;144910.13;1737471;82;21036;-59
2022/02/15 07:29:04;;;;;;;14.23;6.50;;;;;;;10.71;35.16;144888.83;1740865;81;21047;-59
2022/02/15 07:31:33;;;;;;;12.98;6.37;;;;;;;9.76;36.44;144656.78;1740308;82;21518;-60
2022/02/15 07:33:59;;;;;;;14.13;6.78;;;;;;;9.31;37.47;144546.53;1740792;81;21040;-61
2022/02/15 07:36:26;;;;;;;15.72;7.12;;;;;;;9.83;37.20;144671.84;1740461;82;21009;-61
2022/02/15 07:38:54;;;;;;;13.72;7.08;;;;;;;10.25;36.28;144775.86;1740685;82;21041;-61
2022/02/15 07:41:21;;;;;;;11.78;7.28;;;;;;;10.40;36.36;144812.28;1740688;82;20981;-60
2022/02/15 07:43:48;;;;;;;11.93;6.62;;;;;;;10.46;36.00;144827.36;1740453;82;20993;-61
2022/02/15 07:46:17;;;;;;;13.93;7.30;;;;;;;9.95;36.52;144701.94;1740509;81;21072;-59
2022/02/15 07:48:43;;;;;;;11.73;6.10;;;;;;;9.85;37.09;144676.86;1740740;82;21001;-59
2022/02/15 07:51:10;;;;;;;11.35;5.47;;;;;;;9.62;36.67;144621.70;1740725;82;21099;-60
2022/02/15 07:53:37;;;;;;;9.03;5.53;;;;;;;8.74;38.29;144406.20;1740694;81;21037;-60
2022/02/15 07:56:04;;;;;;;13.10;5.65;;;;;;;9.20;38.63;144517.69;1740438;82;21025;-62
2022/02/15 07:58:33;;;;;;;9.18;5.22;;;;;;;9.95;36.88;144701.94;1740723;81;21104;-62
2022/02/15 08:01:02;;;;;;;13.38;5.87;;;;;;;10.49;36.11;144834.87;1740639;81;20989;-61
2022/02/15 08:03:30;;;;;;;11.18;6.10;;;;;;;10.44;36.23;144822.34;1740625;82;21036;-58
2022/02/15 08:05:57;;;;;;;13.53;5.80;;;;;;;9.82;37.22;144669.31;1740520;81;21040;-58
2022/02/15 08:08:26;;;;;;;10.95;5.72;;;;;;;9.50;37.79;144591.63;1740596;81;21060;-60
2022/02/15 08:10:56;;;;;;;12.37;5.35;;;;;;;9.74;38.03;144651.80;1740787;82;21017;-61
2022/02/15 08:13:22;;;;;;;9.30;5.40;;;;;;;10.72;37.00;144890.08;1742279;81;21498;-60
2022/02/15 08:15:50;;;;;;;10.88;6.12;;;;;;;11.46;35.30;145072.00;1754575;82;21020;-62
2022/02/15 08:18:18;;;;;;;14.35;6.47;;;;;;;10.97;36.22;144952.80;1754718;82;21462;-62
2022/02/15 08:20:45;;;;;;;12.75;5.95;;;;;;;11.63;35.49;145113.44;1754548;80;21094;-62
2022/02/15 08:23:13;;;;;;;10.25;5.92;;;;;;;11.61;34.71;145108.41;1754681;80;21028;-60
2022/02/15 08:25:42;;;;;;;11.38;6.17;;;;;;;11.61;34.71;145108.41;1754600;81;21043;-62
2022/02/15 08:28:12;;;;;;;10.50;6.22;;;;;;;11.18;35.57;145002.98;1754447;82;21004;-60
2022/02/15 08:30:41;;;;;;;9.65;5.60;;;;;;;11.10;36.23;144982.92;1754308;82;21016;-61
2022/02/15 08:33:08;;;;;;;11.93;5.83;;;;;;;11.34;35.71;145043.12;1754446;82;21032;-59
2022/02/15 08:35:36;;;;;;;10.48;6.25;;;;;;;11.37;35.53;145049.39;1754555;81;21498;-58
2022/02/15 08:38:03;;;;;;;11.45;5.83;;;;;;;10.80;36.62;144910.13;1754738;82;21000;-61
2022/02/15 08:40:30;;;;;;;9.93;5.92;;;;;;;10.59;37.00;144859.97;1754609;82;21003;-59
2022/02/15 08:42:59;;;;;;;12.23;5.83;;;;;;;9.83;38.18;144671.84;1754479;80;21028;-58
2022/02/15 08:45:25;;;;;;;12.37;6.42;;;;;;;9.18;39.51;144512.67;1754488;82;21056;-58
2022/02/15 08:47:52;;;;;;;13.28;6.50;;;;;;;8.84;40.37;144431.25;1754727;82;21505;-62
2022/02/15 08:50:20;;;;;;;11.70;6.47;;;;;;;8.75;40.54;144408.73;1754424;82;21064;-60
2022/02/15 08:52:48;;;;;;;11.70;5.97;;;;;;;8.29;41.56;144295.95;1754418;82;21036;-59
2022/02/15 08:55:15;;;;;;;8.40;4.97;;;;;;;7.88;42.37;144195.83;1754677;82;21101;-59
2022/02/15 08:57:44;;;;;;;9.48;5.53;;;;;;;6.95;43.58;143969.41;1754538;81;21020;-57
2022/02/15 09:00:15;;;;;;;8.80;4.92;;;;;;;6.20;45.58;143784.38;1754650;82;21032;-62
2022/02/15 09:02:41;;;;;;;8.20;4.60;;;;;;;5.75;46.83;143674.38;1754838;80;21035;-61
2022/02/15 09:05:09;;;;;;;12.03;5.40;;;;;;;5.53;47.09;143620.69;1754677;82;21553;-59
2022/02/15 09:07:37;;;;;;;16.00;5.83;;;;;;;5.30;48.10;143565.72;1754660;82;21016;-58
2022/02/15 09:10:05;;;;;;;8.50;5.42;;;;;;;5.02;49.09;143495.81;1754639;82;21007;-58
2022/02/15 09:12:33;;;;;;;8.78;4.65;;;;;;;4.84;49.98;143453.36;1754596;81;20976;-61
2022/02/15 09:15:00;;;;;;;12.18;4.42;;;;;;;4.90;49.60;143468.33;1754447;81;21526;-60
2022/02/15 09:17:28;;;;;;;10.60;4.37;;;;;;;4.78;50.18;143439.64;1754385;80;21040;-57
2022/02/15 09:19:55;;;;;;;10.32;4.80;;;;;;;4.61;50.76;143395.97;1754615;80;20993;-57
2022/02/15 09:22:22;;;;;;;9.50;4.62;;;;;;;4.43;50.91;143353.53;1754418;82;21586;-57
2022/02/15 09:24:51;;;;;;;10.75;5.37;;;;;;;4.36;51.41;143336.05;1754796;82;21018;-59
2022/02/15 09:27:17;;;;;;;14.28;5.10;;;;;;;4.42;51.53;143349.77;1754841;82;21019;-61
2022/02/15 09:29:44;;;;;;;14.28;6.15;;;;;;;4.55;51.08;143382.20;1754832;81;20975;-60
2022/02/15 09:32:11;;;;;;;10.82;5.78;;;;;;;4.61;51.15;143395.97;1754427;82;21016;-60
2022/02/15 09:34:37;;;;;;;11.83;5.70;;;;;;;4.56;51.23;143384.72;1754612;80;21004;-58
2022/02/15 09:37:04;;;;;;;11.12;5.97;;;;;;;4.49;51.86;143368.48;1754488;80;21028;-58
2022/02/15 09:39:31;;;;;;;10.03;4.50;;;;;;;4.44;52.04;143354.77;1754720;80;20987;-58
2022/02/15 09:41:58;;;;;;;9.30;4.47;;;;;;;4.21;52.37;143298.63;1754733;82;21015;-61
2022/02/15 09:44:24;;;;;;;11.73;4.35;;;;;;;4.01;52.87;143251.20;1754592;80;21508;-58
2022/02/15 09:46:53;;;;;;;9.38;4.40;;;;;;;3.84;52.56;143208.78;1754397;82;21028;-59
2022/02/15 09:52:06;;;;;;;13.50;4.20;;;;;;;3.67;53.31;143168.91;1754347;81;21553;-59
2022/02/15 09:54:33;;;;;;;10.13;4.20;;;;;;;3.61;53.03;143153.95;1754422;82;21051;-60
2022/02/15 09:57:00;;;;;;;7.37;3.65;;;;;;;3.54;53.57;143135.25;1754442;82;21047;-59
2022/02/15 09:59:27;;;;;;;10.93;4.12;;;;;;;3.59;53.52;143147.72;1754373;82;21063;-58
2022/02/15 10:01:54;;;;;;;12.68;3.95;;;;;;;3.59;52.84;143147.72;1754441;80;21039;-58
2022/02/15 10:04:33;;;;;;;7.90;3.37;;;;;;;3.54;52.33;143135.25;1754481;82;21043;-59
2022/02/15 10:07:03;;;;;;;5.58;3.22;;;;;;;3.50;52.54;143126.50;1754375;80;21055;-61
2022/02/15 10:09:30;;;;;;;8.05;3.42;;;;;;;3.51;52.83;143129.02;1754604;81;21020;-60
2022/02/15 10:12:11;;;;;;;7.67;3.80;;;;;;;3.55;52.56;143137.72;1754480;81;21489;-59
2022/02/15 10:14:41;;;;;;;10.48;4.42;;;;;;;3.56;52.34;143141.48;1754566;81;21541;-57
2022/02/15 10:17:15;;;;;;;11.48;3.98;;;;;;;3.65;52.35;143163.91;1754653;81;21012;-57
2022/02/15 10:19:45;;;;;;;6.85;3.58;;;;;;;3.69;51.98;143173.89;1754507;81;21071;-59
2022/02/15 10:22:11;;;;;;;8.03;3.02;;;;;;;3.67;52.12;143167.66;1754611;82;21004;-61
2022/02/15 10:24:40;;;;;;;7.60;3.67;;;;;;;3.64;52.43;143161.42;1727131;82;21506;-60
2022/02/15 10:27:11;;;;;;;8.18;4.00;;;;;;;3.57;52.73;143142.72;1754386;81;21068;-59
2022/02/15 10:29:40;;;;;;;;;;;;;;;3.53;53.08;143133.97;1757022;81;21036;-57
2022/02/15 10:32:14;;;;;;;12.23;4.33;;;;;;;3.60;53.45;143150.19;1754724;82;20134;-59
2022/02/15 10:34:56;;;;;;;9.68;4.20;;;;;;;3.73;53.43;143182.61;1754800;80;21046;-58
2022/02/15 10:37:32;;;;;;;10.20;5.00;;;;;;;3.83;53.59;143206.31;1754573;81;21066;-61
2022/02/15 10:40:06;;;;;;;7.92;4.30;;;;;;;3.84;53.58;143210.06;1754632;82;21514;-60
2022/02/15 10:42:36;;;;;;;8.45;4.40;;;;;;;3.92;53.44;143228.78;1754923;82;21012;-58
2022/02/15 10:45:08;;;;;;;8.60;5.12;;;;;;;4.03;53.42;143256.20;1754875;81;21529;-61
2022/02/15 10:47:42;;;;;;;7.92;4.28;;;;;;;4.27;52.59;143313.58;1754792;80;21044;-57
2022/02/15 10:50:12;;;;;;;8.85;4.12;;;;;;;4.30;51.51;143321.05;1754865;82;20992;-59
2022/02/15 10:52:40;;;;;;;8.93;4.45;;;;;;;4.17;51.83;143288.63;1754711;80;20977;-61
2022/02/15 10:55:09;;;;;;;6.47;3.75;;;;;;;4.10;52.26;143272.44;1754737;80;21023;-57
2022/02/15 10:57:37;;;;;;;8.40;4.00;;;;;;;4.13;52.09;143279.91;1754495;80;21118;-59
2022/02/15 11:00:12;;;;;;;7.15;4.22;;;;;;;4.28;52.26;143316.09;1754756;82;21533;-58
2022/02/15 11:02:42;;;;;;;8.10;3.62;;;;;;;4.30;51.75;143321.05;1754859;80;21000;-59
2022/02/15 11:05:11;;;;;;;10.05;3.90;;;;;;;4.25;51.67;143308.56;1754475;82;21009;-59
2022/02/15 11:07:40;;;;;;;9.78;3.62;;;;;;;4.33;51.45;143328.58;1754885;81;20980;-57
2022/02/15 11:10:25;;;;;;;9.43;3.98;;;;;;;4.30;51.20;143321.05;1754489;81;21066;-61
2022/02/15 11:13:01;;;;;;;7.95;3.90;;;;;;;4.26;51.41;143311.09;1754531;81;21134;-61
2022/02/15 11:15:34;;;;;;;8.30;4.03;;;;;;;4.39;51.03;143343.53;1754643;81;21486;-60
2022/02/15 11:18:07;;;;;;;11.48;4.83;;;;;;;4.36;51.57;143336.05;1754740;80;21039;-59
2022/02/15 11:20:50;;;;;;;9.80;4.78;;;;;;;4.36;52.24;143336.05;1754704;80;21043;-60
2022/02/15 11:23:23;;;;;;;13.00;4.67;;;;;;;4.33;52.63;143329.81;1754766;80;21000;-58
2022/02/15 11:26:13;;;;;;;10.48;4.55;;;;;;;4.53;52.34;143378.48;1754735;81;21004;-61
2022/02/15 11:28:56;;;;;;;10.85;4.90;;;;;;;4.78;52.10;143438.36;1754577;80;21059;-57
2022/02/15 11:31:42;;;;;;;8.38;4.30;;;;;;;5.05;51.76;143504.53;1754686;81;21008;-61
2022/02/15 11:34:12;;;;;;;8.78;4.40;;;;;;;4.92;50.42;143473.33;1754812;81;21043;-59
2022/02/15 11:36:48;;;;;;;7.87;4.40;;;;;;;4.74;51.22;143429.64;1754759;80;21003;-62